Time,TemperatureF,DewpointF,PressureIn,WindDirection,WindDirectionDegrees,WindSpeedMPH,WindSpeedGustMPH,Humidity,HourlyPrecipIn,Conditions,Clouds,dailyrainin,SoftwareType,DateUTC
2013-02-15 00:22:00,42.0,41.0,-100.00,NW,324,3.0,-999.0,98,0.00,,,-99.99,,2013-02-15 05:22:00,
2013-02-15 00:32:00,42.0,41.0,-100.00,NW,324,3.0,-999.0,98,0.00,,,-99.99,,2013-02-15 05:32:00,
2013-02-15 00:42:00,42.0,41.0,-100.00,NW,324,3.0,-999.0,98,0.00,,,-99.99,,2013-02-15 05:42:00,
2013-02-15 01:11:00,41.0,41.0,-100.00,NW,318,3.0,-999.0,98,0.00,,,-99.99,,2013-02-15 06:11:00,
2013-02-15 01:22:00,41.0,41.0,-100.00,NW,318,3.0,-999.0,98,0.00,,,-99.99,,2013-02-15 06:22:00,
2013-02-15 01:32:00,41.0,41.0,-100.00,NW,318,3.0,-999.0,98,0.00,,,-99.99,,2013-02-15 06:32:00,
2013-02-15 01:42:00,41.0,41.0,-100.00,NW,318,3.0,-999.0,98,0.00,,,-99.99,,2013-02-15 06:42:00,
2013-02-15 02:21:00,40.0,40.0,-100.00,NW,321,7.0,-999.0,98,0.00,,,-99.99,,2013-02-15 07:21:00,
2013-02-15 02:32:00,40.0,40.0,-100.00,NW,321,7.0,-999.0,98,0.00,,,-99.99,,2013-02-15 07:32:00,
2013-02-15 02:42:00,40.0,40.0,-100.00,NW,321,7.0,-999.0,98,0.00,,,-99.99,,2013-02-15 07:42:00,
2013-02-15 03:11:00,43.0,40.0,-100.00,NNW,328,9.0,-999.0,90,0.00,,,-99.99,,2013-02-15 08:11:00,
2013-02-15 03:21:00,43.0,40.0,-100.00,NNW,328,9.0,-999.0,90,0.00,,,-99.99,,2013-02-15 08:21:00,
2013-02-15 03:32:00,43.0,40.0,-100.00,NNW,328,9.0,-999.0,90,0.00,,,-99.99,,2013-02-15 08:32:00,
2013-02-15 03:42:00,43.0,40.0,-100.00,NNW,328,9.0,-999.0,90,0.00,,,-99.99,,2013-02-15 08:42:00,
2013-02-15 04:22:00,40.0,39.0,-100.00,NNW,334,5.0,-999.0,95,0.00,,,-99.99,,2013-02-15 09:22:00,
2013-02-15 04:32:00,40.0,39.0,-100.00,NNW,334,5.0,-999.0,95,0.00,,,-99.99,,2013-02-15 09:32:00,
2013-02-15 04:42:00,40.0,39.0,-100.00,NNW,334,5.0,-999.0,95,0.00,,,-99.99,,2013-02-15 09:42:00,
2013-02-15 05:21:00,39.0,38.0,-100.00,NNW,333,5.0,-999.0,96,0.00,,,-99.99,,2013-02-15 10:21:00,
2013-02-15 05:32:00,39.0,38.0,-100.00,NNW,333,5.0,-999.0,96,0.00,,,-99.99,,2013-02-15 10:32:00,
2013-02-15 05:42:00,39.0,38.0,-100.00,NNW,333,5.0,-999.0,96,0.00,,,-99.99,,2013-02-15 10:42:00,
2013-02-15 06:23:00,39.0,38.0,-100.00,NW,325,5.0,-999.0,96,0.00,,,-99.99,,2013-02-15 11:23:00,
2013-02-15 06:32:00,39.0,38.0,-100.00,NW,325,5.0,-999.0,96,0.00,,,-99.99,,2013-02-15 11:32:00,
2013-02-15 06:42:00,39.0,38.0,-100.00,NW,325,5.0,-999.0,96,0.00,,,-99.99,,2013-02-15 11:42:00,
2013-02-15 07:22:00,38.0,37.0,-100.00,NNW,328,6.0,-999.0,96,0.00,,,-99.99,,2013-02-15 12:22:00,
2013-02-15 07:32:00,38.0,37.0,-100.00,NNW,328,6.0,-999.0,96,0.00,,,-99.99,,2013-02-15 12:32:00,
2013-02-15 07:42:00,38.0,37.0,-100.00,NNW,328,6.0,-999.0,96,0.00,,,-99.99,,2013-02-15 12:42:00,
2013-02-15 08:22:00,38.0,38.0,-100.00,NNW,329,5.0,-999.0,98,0.00,,,-99.99,,2013-02-15 13:22:00,
2013-02-15 08:32:00,38.0,38.0,-100.00,NNW,329,5.0,-999.0,98,0.00,,,-99.99,,2013-02-15 13:32:00,
2013-02-15 08:42:00,38.0,38.0,-100.00,NNW,329,5.0,-999.0,98,0.00,,,-99.99,,2013-02-15 13:42:00,
2013-02-15 09:22:00,45.0,42.0,-100.00,NW,326,5.0,-999.0,89,0.00,,,-99.99,,2013-02-15 14:22:00,
2013-02-15 09:32:00,45.0,42.0,-100.00,NW,326,5.0,-999.0,89,0.00,,,-99.99,,2013-02-15 14:32:00,
2013-02-15 09:42:00,45.0,42.0,-100.00,NW,326,5.0,-999.0,89,0.00,,,-99.99,,2013-02-15 14:42:00,
2013-02-15 10:22:00,50.0,42.0,-100.00,NNW,342,6.0,-999.0,74,0.00,,,-99.99,,2013-02-15 15:22:00,
2013-02-15 10:32:00,50.0,42.0,-100.00,NNW,342,6.0,-999.0,74,0.00,,,-99.99,,2013-02-15 15:32:00,
2013-02-15 10:42:00,50.0,42.0,-100.00,NNW,342,6.0,-999.0,74,0.00,,,-99.99,,2013-02-15 15:42:00,
2013-02-15 11:22:00,53.0,40.0,-100.00,NE,37,5.0,-999.0,61,0.00,,,-99.99,,2013-02-15 16:22:00,
2013-02-15 11:32:00,53.0,40.0,-100.00,NE,37,5.0,-999.0,61,0.00,,,-99.99,,2013-02-15 16:32:00,
2013-02-15 11:42:00,53.0,40.0,-100.00,NE,37,5.0,-999.0,61,0.00,,,-99.99,,2013-02-15 16:42:00,
2013-02-15 12:21:00,53.0,40.0,-100.00,ESE,108,7.0,-999.0,61,0.00,,,-99.99,,2013-02-15 17:21:00,
2013-02-15 12:32:00,53.0,40.0,-100.00,ESE,108,7.0,-999.0,61,0.00,,,-99.99,,2013-02-15 17:32:00,
2013-02-15 12:42:00,53.0,40.0,-100.00,ESE,108,7.0,-999.0,61,0.00,,,-99.99,,2013-02-15 17:42:00,
2013-02-15 13:22:00,52.0,38.0,-100.00,ESE,110,7.0,-999.0,57,0.00,,,-99.99,,2013-02-15 18:22:00,
2013-02-15 13:32:00,52.0,38.0,-100.00,ESE,110,7.0,-999.0,57,0.00,,,-99.99,,2013-02-15 18:32:00,
2013-02-15 13:42:00,52.0,38.0,-100.00,ESE,110,7.0,-999.0,57,0.00,,,-99.99,,2013-02-15 18:42:00,
2013-02-15 14:22:00,52.0,39.0,-100.00,ESE,122,7.0,-999.0,59,0.00,,,-99.99,,2013-02-15 19:22:00,
2013-02-15 14:32:00,52.0,39.0,-100.00,ESE,122,7.0,-999.0,59,0.00,,,-99.99,,2013-02-15 19:32:00,
2013-02-15 14:42:00,52.0,39.0,-100.00,ESE,122,7.0,-999.0,59,0.00,,,-99.99,,2013-02-15 19:42:00,
2013-02-15 15:22:00,53.0,38.0,-100.00,SE,124,8.0,-999.0,57,0.00,,,-99.99,,2013-02-15 20:22:00,
2013-02-15 15:32:00,53.0,38.0,-100.00,SE,124,8.0,-999.0,57,0.00,,,-99.99,,2013-02-15 20:32:00,
2013-02-15 15:42:00,53.0,38.0,-100.00,SE,124,8.0,-999.0,57,0.00,,,-99.99,,2013-02-15 20:42:00,
2013-02-15 16:22:00,53.0,39.0,-100.00,SE,135,7.0,-999.0,60,0.00,,,-99.99,,2013-02-15 21:22:00,
2013-02-15 16:32:00,53.0,39.0,-100.00,SE,135,7.0,-999.0,60,0.00,,,-99.99,,2013-02-15 21:32:00,
2013-02-15 16:42:00,53.0,39.0,-100.00,SE,135,7.0,-999.0,60,0.00,,,-99.99,,2013-02-15 21:42:00,
2013-02-15 17:22:00,53.0,41.0,-100.00,SSE,156,7.0,-999.0,62,0.00,,,-99.99,,2013-02-15 22:22:00,
2013-02-15 17:32:00,53.0,41.0,-100.00,SSE,156,7.0,-999.0,62,0.00,,,-99.99,,2013-02-15 22:32:00,
2013-02-15 17:42:00,53.0,41.0,-100.00,SSE,156,7.0,-999.0,62,0.00,,,-99.99,,2013-02-15 22:42:00,
2013-02-15 18:21:00,52.0,42.0,-100.00,South,172,6.0,-999.0,69,0.00,,,-99.99,,2013-02-15 23:21:00,
2013-02-15 18:32:00,52.0,42.0,-100.00,South,172,6.0,-999.0,69,0.00,,,-99.99,,2013-02-15 23:32:00,
2013-02-15 18:42:00,52.0,42.0,-100.00,South,172,6.0,-999.0,69,0.00,,,-99.99,,2013-02-15 23:42:00,
2013-02-15 19:22:00,50.0,43.0,-100.00,WSW,248,2.0,-999.0,77,0.00,,,-99.99,,2013-02-16 00:22:00,
2013-02-15 19:32:00,50.0,43.0,-100.00,WSW,248,2.0,-999.0,77,0.00,,,-99.99,,2013-02-16 00:32:00,
2013-02-15 19:42:00,50.0,43.0,-100.00,WSW,248,2.0,-999.0,77,0.00,,,-99.99,,2013-02-16 00:42:00,
2013-02-15 20:21:00,46.0,42.0,-100.00,NW,310,2.0,-999.0,87,0.00,,,-99.99,,2013-02-16 01:21:00,
2013-02-15 20:32:00,46.0,42.0,-100.00,NW,310,2.0,-999.0,87,0.00,,,-99.99,,2013-02-16 01:32:00,
2013-02-15 20:42:00,46.0,42.0,-100.00,NW,310,2.0,-999.0,87,0.00,,,-99.99,,2013-02-16 01:42:00,
2013-02-15 21:22:00,44.0,42.0,-100.00,WNW,296,1.0,-999.0,93,0.00,,,-99.99,,2013-02-16 02:22:00,
2013-02-15 21:32:00,44.0,42.0,-100.00,WNW,296,1.0,-999.0,93,0.00,,,-99.99,,2013-02-16 02:32:00,
2013-02-15 21:42:00,44.0,42.0,-100.00,WNW,296,1.0,-999.0,93,0.00,,,-99.99,,2013-02-16 02:42:00,
2013-02-15 22:11:00,43.0,42.0,-100.00,WNW,292,1.0,-999.0,95,0.00,,,-99.99,,2013-02-16 03:11:00,
2013-02-15 22:21:00,43.0,42.0,-100.00,WNW,292,1.0,-999.0,95,0.00,,,-99.99,,2013-02-16 03:21:00,
2013-02-15 22:32:00,43.0,42.0,-100.00,WNW,292,1.0,-999.0,95,0.00,,,-99.99,,2013-02-16 03:32:00,
2013-02-15 22:42:00,43.0,42.0,-100.00,WNW,292,1.0,-999.0,95,0.00,,,-99.99,,2013-02-16 03:42:00,
2013-02-15 23:21:00,44.0,43.0,-100.00,WNW,294,2.0,-999.0,95,0.00,,,-99.99,,2013-02-16 04:21:00,
2013-02-15 23:32:00,44.0,43.0,-100.00,WNW,294,2.0,-999.0,95,0.00,,,-99.99,,2013-02-16 04:32:00,
2013-02-15 23:42:00,44.0,43.0,-100.00,WNW,294,2.0,-999.0,95,0.00,,,-99.99,,2013-02-16 04:42:00,